Terminal Aerodrome Forecast
Issued by NWS Newport/Morehead City, NC

Home | Current Version | Previous Version | Text Only | Print | Product List | Glossary Off
Versions: 1 2 3 4 5 6 7 8 9 10 11 12 13 14 15 16

986
FTUS42 KMHX 152326
TAFEWN
TAF
KEWN 152326Z 1600/1624 35004KT P6SM SCT050 BKN200
      TEMPO 1600/1602 BKN050
     FM160800 29007KT P6SM SKC=

USA.gov is the U.S. government's official web portal to all federal, state and local government web resources and services.